sensor_id;sensor_type;location;lat;lon;timestamp;P1;durP1;ratioP1;P2;durP2;ratioP2
3189;SDS011;1606;51.946;10.558;2023-05-10T00:02:07;8.70;;;4.73;;
3189;SDS011;1606;51.946;10.558;2023-05-10T00:04:35;11.33;;;5.17;;
3189;SDS011;1606;51.946;10.558;2023-05-10T00:07:03;9.10;;;4.30;;
3189;SDS011;1606;51.946;10.558;2023-05-10T00:09:31;8.70;;;4.27;;
3189;SDS011;1606;51.946;10.558;2023-05-10T00:11:58;12.97;;;6.20;;
3189;SDS011;1606;51.946;10.558;2023-05-10T00:14:26;10.83;;;6.17;;
3189;SDS011;1606;51.946;10.558;2023-05-10T00:16:55;9.60;;;5.03;;
3189;SDS011;1606;51.946;10.558;2023-05-10T00:19:23;11.87;;;4.80;;
3189;SDS011;1606;51.946;10.558;2023-05-10T00:21:51;10.20;;;5.37;;
3189;SDS011;1606;51.946;10.558;2023-05-10T00:24:19;9.40;;;5.30;;
3189;SDS011;1606;51.946;10.558;2023-05-10T00:26:46;12.80;;;5.03;;
3189;SDS011;1606;51.946;10.558;2023-05-10T00:29:14;9.73;;;5.17;;
3189;SDS011;1606;51.946;10.558;2023-05-10T00:31:42;8.33;;;4.33;;
3189;SDS011;1606;51.946;10.558;2023-05-10T00:34:11;9.93;;;4.63;;
3189;SDS011;1606;51.946;10.558;2023-05-10T00:36:39;11.17;;;5.60;;
3189;SDS011;1606;51.946;10.558;2023-05-10T00:39:06;9.90;;;5.03;;
3189;SDS011;1606;51.946;10.558;2023-05-10T00:41:34;9.80;;;4.70;;
3189;SDS011;1606;51.946;10.558;2023-05-10T00:44:02;8.67;;;5.00;;
3189;SDS011;1606;51.946;10.558;2023-05-10T00:46:30;10.43;;;5.27;;
3189;SDS011;1606;51.946;10.558;2023-05-10T00:48:58;9.47;;;5.00;;
3189;SDS011;1606;51.946;10.558;2023-05-10T00:51:28;8.90;;;5.10;;
3189;SDS011;1606;51.946;10.558;2023-05-10T00:53:56;10.32;;;5.50;;
3189;SDS011;1606;51.946;10.558;2023-05-10T00:56:24;9.70;;;5.23;;
3189;SDS011;1606;51.946;10.558;2023-05-10T00:58:55;11.50;;;6.40;;
3189;SDS011;1606;51.946;10.558;2023-05-10T01:01:23;10.07;;;4.97;;
3189;SDS011;1606;51.946;10.558;2023-05-10T01:03:52;10.40;;;4.50;;
3189;SDS011;1606;51.946;10.558;2023-05-10T01:06:21;9.70;;;5.10;;
3189;SDS011;1606;51.946;10.558;2023-05-10T01:08:50;9.50;;;4.83;;
3189;SDS011;1606;51.946;10.558;2023-05-10T01:11:18;8.43;;;4.87;;
3189;SDS011;1606;51.946;10.558;2023-05-10T01:13:46;9.60;;;5.30;;
3189;SDS011;1606;51.946;10.558;2023-05-10T01:16:19;9.20;;;5.30;;
3189;SDS011;1606;51.946;10.558;2023-05-10T01:18:47;8.40;;;4.80;;
3189;SDS011;1606;51.946;10.558;2023-05-10T01:21:17;9.50;;;5.33;;
3189;SDS011;1606;51.946;10.558;2023-05-10T01:27:14;9.97;;;5.73;;
3189;SDS011;1606;51.946;10.558;2023-05-10T01:30:05;9.07;;;5.70;;
3189;SDS011;1606;51.946;10.558;2023-05-10T01:32:49;10.33;;;5.80;;
3189;SDS011;1606;51.946;10.558;2023-05-10T01:35:26;12.50;;;6.07;;
3189;SDS011;1606;51.946;10.558;2023-05-10T01:38:04;10.47;;;6.90;;
3189;SDS011;1606;51.946;10.558;2023-05-10T01:40:35;9.50;;;5.60;;
3189;SDS011;1606;51.946;10.558;2023-05-10T01:43:08;10.10;;;5.53;;
3189;SDS011;1606;51.946;10.558;2023-05-10T01:45:45;9.03;;;5.30;;
3189;SDS011;1606;51.946;10.558;2023-05-10T01:48:19;13.37;;;6.50;;
3189;SDS011;1606;51.946;10.558;2023-05-10T01:50:48;9.87;;;5.50;;
3189;SDS011;1606;51.946;10.558;2023-05-10T01:53:17;9.30;;;5.90;;
3189;SDS011;1606;51.946;10.558;2023-05-10T01:55:47;12.87;;;6.77;;
3189;SDS011;1606;51.946;10.558;2023-05-10T01:58:19;10.53;;;6.97;;
3189;SDS011;1606;51.946;10.558;2023-05-10T02:00:49;11.73;;;6.50;;
3189;SDS011;1606;51.946;10.558;2023-05-10T02:03:21;14.47;;;7.07;;
3189;SDS011;1606;51.946;10.558;2023-05-10T02:05:51;8.87;;;5.63;;
3189;SDS011;1606;51.946;10.558;2023-05-10T02:08:20;9.63;;;6.27;;
3189;SDS011;1606;51.946;10.558;2023-05-10T02:10:50;11.47;;;6.60;;
3189;SDS011;1606;51.946;10.558;2023-05-10T02:13:19;12.33;;;6.70;;
3189;SDS011;1606;51.946;10.558;2023-05-10T02:15:48;11.57;;;7.37;;
3189;SDS011;1606;51.946;10.558;2023-05-10T02:18:17;11.60;;;6.78;;
3189;SDS011;1606;51.946;10.558;2023-05-10T02:20:47;10.70;;;6.47;;
3189;SDS011;1606;51.946;10.558;2023-05-10T02:23:15;11.23;;;7.03;;
3189;SDS011;1606;51.946;10.558;2023-05-10T02:25:44;10.37;;;6.67;;
3189;SDS011;1606;51.946;10.558;2023-05-10T02:28:14;11.07;;;7.10;;
3189;SDS011;1606;51.946;10.558;2023-05-10T02:30:44;10.00;;;6.13;;
3189;SDS011;1606;51.946;10.558;2023-05-10T02:33:14;11.43;;;6.70;;
3189;SDS011;1606;51.946;10.558;2023-05-10T02:35:42;9.83;;;6.23;;
3189;SDS011;1606;51.946;10.558;2023-05-10T02:38:11;13.67;;;7.13;;
3189;SDS011;1606;51.946;10.558;2023-05-10T02:40:41;10.67;;;6.57;;
3189;SDS011;1606;51.946;10.558;2023-05-10T02:43:12;13.67;;;5.90;;
3189;SDS011;1606;51.946;10.558;2023-05-10T02:45:41;11.33;;;5.97;;
3189;SDS011;1606;51.946;10.558;2023-05-10T02:48:10;10.70;;;6.03;;
3189;SDS011;1606;51.946;10.558;2023-05-10T02:50:38;10.87;;;6.30;;
3189;SDS011;1606;51.946;10.558;2023-05-10T02:53:15;10.63;;;5.90;;
3189;SDS011;1606;51.946;10.558;2023-05-10T02:55:45;10.30;;;5.93;;
3189;SDS011;1606;51.946;10.558;2023-05-10T02:58:17;10.93;;;7.30;;
3189;SDS011;1606;51.946;10.558;2023-05-10T03:00:46;11.33;;;5.67;;
3189;SDS011;1606;51.946;10.558;2023-05-10T03:03:14;10.70;;;5.90;;
3189;SDS011;1606;51.946;10.558;2023-05-10T03:05:42;9.80;;;5.50;;
3189;SDS011;1606;51.946;10.558;2023-05-10T03:08:10;9.77;;;6.27;;
3189;SDS011;1606;51.946;10.558;2023-05-10T03:10:41;11.93;;;6.50;;
3189;SDS011;1606;51.946;10.558;2023-05-10T03:13:21;10.07;;;5.40;;
3189;SDS011;1606;51.946;10.558;2023-05-10T03:15:57;11.23;;;5.17;;
3189;SDS011;1606;51.946;10.558;2023-05-10T03:18:29;11.77;;;5.40;;
3189;SDS011;1606;51.946;10.558;2023-05-10T03:21:02;9.50;;;5.20;;
3189;SDS011;1606;51.946;10.558;2023-05-10T03:23:34;9.73;;;6.37;;
3189;SDS011;1606;51.946;10.558;2023-05-10T03:26:04;10.97;;;5.97;;
3189;SDS011;1606;51.946;10.558;2023-05-10T03:28:33;12.87;;;7.20;;
3189;SDS011;1606;51.946;10.558;2023-05-10T03:31:02;9.40;;;5.83;;
3189;SDS011;1606;51.946;10.558;2023-05-10T03:33:31;10.27;;;6.20;;
3189;SDS011;1606;51.946;10.558;2023-05-10T03:35:59;10.37;;;6.00;;
3189;SDS011;1606;51.946;10.558;2023-05-10T03:38:28;9.87;;;6.70;;
3189;SDS011;1606;51.946;10.558;2023-05-10T03:40:56;10.30;;;5.93;;
3189;SDS011;1606;51.946;10.558;2023-05-10T03:43:25;11.07;;;7.00;;
3189;SDS011;1606;51.946;10.558;2023-05-10T03:45:52;9.70;;;6.90;;
3189;SDS011;1606;51.946;10.558;2023-05-10T03:48:20;12.97;;;6.70;;
3189;SDS011;1606;51.946;10.558;2023-05-10T03:50:48;11.37;;;6.47;;
3189;SDS011;1606;51.946;10.558;2023-05-10T03:53:16;12.80;;;6.60;;
3189;SDS011;1606;51.946;10.558;2023-05-10T03:55:44;11.10;;;5.97;;
3189;SDS011;1606;51.946;10.558;2023-05-10T03:58:12;11.57;;;6.00;;
3189;SDS011;1606;51.946;10.558;2023-05-10T04:00:41;10.80;;;7.13;;
3189;SDS011;1606;51.946;10.558;2023-05-10T04:03:11;10.10;;;6.40;;
3189;SDS011;1606;51.946;10.558;2023-05-10T04:05:39;11.70;;;7.10;;
3189;SDS011;1606;51.946;10.558;2023-05-10T04:08:07;10.50;;;6.67;;
3189;SDS011;1606;51.946;10.558;2023-05-10T04:10:34;10.87;;;7.07;;
3189;SDS011;1606;51.946;10.558;2023-05-10T04:13:02;9.57;;;5.63;;
3189;SDS011;1606;51.946;10.558;2023-05-10T04:15:30;13.93;;;6.90;;
3189;SDS011;1606;51.946;10.558;2023-05-10T04:17:59;11.67;;;6.90;;
3189;SDS011;1606;51.946;10.558;2023-05-10T04:20:27;12.30;;;6.13;;
3189;SDS011;1606;51.946;10.558;2023-05-10T04:22:55;11.53;;;6.87;;
3189;SDS011;1606;51.946;10.558;2023-05-10T04:25:22;12.37;;;8.10;;
3189;SDS011;1606;51.946;10.558;2023-05-10T04:27:50;14.70;;;6.63;;
3189;SDS011;1606;51.946;10.558;2023-05-10T04:30:19;9.87;;;6.17;;
3189;SDS011;1606;51.946;10.558;2023-05-10T04:32:47;11.20;;;6.30;;
3189;SDS011;1606;51.946;10.558;2023-05-10T04:35:16;13.17;;;7.43;;
3189;SDS011;1606;51.946;10.558;2023-05-10T04:37:43;15.60;;;6.63;;
3189;SDS011;1606;51.946;10.558;2023-05-10T04:40:11;11.27;;;7.23;;
3189;SDS011;1606;51.946;10.558;2023-05-10T04:42:40;11.83;;;6.93;;
3189;SDS011;1606;51.946;10.558;2023-05-10T04:45:08;13.13;;;7.23;;
3189;SDS011;1606;51.946;10.558;2023-05-10T04:47:36;10.67;;;6.70;;
3189;SDS011;1606;51.946;10.558;2023-05-10T04:50:05;10.40;;;6.27;;
3189;SDS011;1606;51.946;10.558;2023-05-10T04:52:35;11.90;;;6.88;;
3189;SDS011;1606;51.946;10.558;2023-05-10T04:55:03;10.97;;;6.30;;
3189;SDS011;1606;51.946;10.558;2023-05-10T04:57:33;9.60;;;6.13;;
3189;SDS011;1606;51.946;10.558;2023-05-10T05:00:01;10.27;;;5.97;;
3189;SDS011;1606;51.946;10.558;2023-05-10T05:02:29;11.10;;;5.90;;
3189;SDS011;1606;51.946;10.558;2023-05-10T05:04:57;14.70;;;6.97;;
3189;SDS011;1606;51.946;10.558;2023-05-10T05:07:25;11.63;;;6.80;;
3189;SDS011;1606;51.946;10.558;2023-05-10T05:09:54;10.20;;;6.10;;
3189;SDS011;1606;51.946;10.558;2023-05-10T05:12:22;10.73;;;6.47;;
3189;SDS011;1606;51.946;10.558;2023-05-10T05:14:49;10.03;;;6.53;;
3189;SDS011;1606;51.946;10.558;2023-05-10T05:17:17;10.00;;;5.87;;
3189;SDS011;1606;51.946;10.558;2023-05-10T05:19:45;11.40;;;6.40;;
3189;SDS011;1606;51.946;10.558;2023-05-10T05:22:13;11.80;;;6.70;;
3189;SDS011;1606;51.946;10.558;2023-05-10T05:24:42;12.10;;;6.30;;
3189;SDS011;1606;51.946;10.558;2023-05-10T05:27:12;11.37;;;6.93;;
3189;SDS011;1606;51.946;10.558;2023-05-10T05:29:40;12.07;;;6.23;;
3189;SDS011;1606;51.946;10.558;2023-05-10T05:32:07;11.20;;;7.13;;
3189;SDS011;1606;51.946;10.558;2023-05-10T05:34:35;12.40;;;6.93;;
3189;SDS011;1606;51.946;10.558;2023-05-10T05:37:03;9.67;;;5.47;;
3189;SDS011;1606;51.946;10.558;2023-05-10T05:39:31;12.60;;;7.47;;
3189;SDS011;1606;51.946;10.558;2023-05-10T05:41:58;11.53;;;7.33;;
3189;SDS011;1606;51.946;10.558;2023-05-10T05:44:27;11.80;;;7.00;;
3189;SDS011;1606;51.946;10.558;2023-05-10T05:46:55;14.20;;;8.47;;
3189;SDS011;1606;51.946;10.558;2023-05-10T05:49:23;10.90;;;5.93;;
3189;SDS011;1606;51.946;10.558;2023-05-10T05:51:51;13.03;;;7.27;;
3189;SDS011;1606;51.946;10.558;2023-05-10T05:54:19;12.70;;;8.00;;
3189;SDS011;1606;51.946;10.558;2023-05-10T05:56:47;13.10;;;6.80;;
3189;SDS011;1606;51.946;10.558;2023-05-10T05:59:14;14.73;;;7.63;;
3189;SDS011;1606;51.946;10.558;2023-05-10T06:01:43;10.00;;;6.47;;
3189;SDS011;1606;51.946;10.558;2023-05-10T06:04:11;12.33;;;6.93;;
3189;SDS011;1606;51.946;10.558;2023-05-10T06:06:39;13.03;;;7.03;;
3189;SDS011;1606;51.946;10.558;2023-05-10T06:09:07;16.57;;;7.90;;
3189;SDS011;1606;51.946;10.558;2023-05-10T06:11:35;11.43;;;6.20;;
3189;SDS011;1606;51.946;10.558;2023-05-10T06:14:03;13.50;;;6.70;;
3189;SDS011;1606;51.946;10.558;2023-05-10T06:16:33;11.77;;;7.07;;
3189;SDS011;1606;51.946;10.558;2023-05-10T06:19:02;12.30;;;6.53;;
3189;SDS011;1606;51.946;10.558;2023-05-10T06:21:30;12.47;;;7.13;;
3189;SDS011;1606;51.946;10.558;2023-05-10T06:23:58;9.90;;;6.40;;
3189;SDS011;1606;51.946;10.558;2023-05-10T06:26:25;10.80;;;6.27;;
3189;SDS011;1606;51.946;10.558;2023-05-10T06:28:53;13.87;;;7.03;;
3189;SDS011;1606;51.946;10.558;2023-05-10T06:31:21;11.97;;;7.20;;
3189;SDS011;1606;51.946;10.558;2023-05-10T06:33:49;11.77;;;7.10;;
3189;SDS011;1606;51.946;10.558;2023-05-10T06:36:18;15.55;;;7.30;;
3189;SDS011;1606;51.946;10.558;2023-05-10T06:38:46;11.90;;;7.90;;
3189;SDS011;1606;51.946;10.558;2023-05-10T06:41:13;12.57;;;7.40;;
3189;SDS011;1606;51.946;10.558;2023-05-10T06:43:41;11.80;;;7.10;;
3189;SDS011;1606;51.946;10.558;2023-05-10T06:46:09;12.93;;;7.20;;
3189;SDS011;1606;51.946;10.558;2023-05-10T06:48:37;13.80;;;7.93;;
3189;SDS011;1606;51.946;10.558;2023-05-10T06:51:05;14.37;;;8.40;;
3189;SDS011;1606;51.946;10.558;2023-05-10T06:53:34;11.30;;;7.93;;
3189;SDS011;1606;51.946;10.558;2023-05-10T06:56:02;12.80;;;7.77;;
3189;SDS011;1606;51.946;10.558;2023-05-10T06:58:30;12.60;;;7.67;;
3189;SDS011;1606;51.946;10.558;2023-05-10T07:01:01;14.60;;;8.40;;
3189;SDS011;1606;51.946;10.558;2023-05-10T07:03:30;11.93;;;7.67;;
3189;SDS011;1606;51.946;10.558;2023-05-10T07:06:01;13.37;;;8.23;;
3189;SDS011;1606;51.946;10.558;2023-05-10T07:08:30;13.07;;;8.67;;
3189;SDS011;1606;51.946;10.558;2023-05-10T07:11:03;12.17;;;7.70;;
3189;SDS011;1606;51.946;10.558;2023-05-10T07:13:33;13.13;;;8.40;;
3189;SDS011;1606;51.946;10.558;2023-05-10T07:16:02;14.63;;;9.13;;
3189;SDS011;1606;51.946;10.558;2023-05-10T07:18:32;16.43;;;9.10;;
3189;SDS011;1606;51.946;10.558;2023-05-10T07:21:00;12.97;;;8.53;;
3189;SDS011;1606;51.946;10.558;2023-05-10T07:23:28;16.40;;;10.37;;
3189;SDS011;1606;51.946;10.558;2023-05-10T07:25:56;13.60;;;9.37;;
3189;SDS011;1606;51.946;10.558;2023-05-10T07:28:25;15.00;;;9.17;;
3189;SDS011;1606;51.946;10.558;2023-05-10T07:30:53;19.03;;;10.03;;
3189;SDS011;1606;51.946;10.558;2023-05-10T07:33:20;12.97;;;8.67;;
3189;SDS011;1606;51.946;10.558;2023-05-10T07:35:49;14.47;;;9.30;;
3189;SDS011;1606;51.946;10.558;2023-05-10T07:38:17;14.70;;;9.23;;
3189;SDS011;1606;51.946;10.558;2023-05-10T07:40:45;13.17;;;8.50;;
3189;SDS011;1606;51.946;10.558;2023-05-10T07:43:13;16.80;;;9.30;;
3189;SDS011;1606;51.946;10.558;2023-05-10T07:45:42;15.97;;;10.03;;
3189;SDS011;1606;51.946;10.558;2023-05-10T07:48:10;14.48;;;10.02;;
3189;SDS011;1606;51.946;10.558;2023-05-10T07:50:37;17.40;;;10.37;;
3189;SDS011;1606;51.946;10.558;2023-05-10T07:53:05;15.90;;;9.40;;
3189;SDS011;1606;51.946;10.558;2023-05-10T07:55:34;13.67;;;8.33;;
3189;SDS011;1606;51.946;10.558;2023-05-10T07:58:01;16.83;;;11.10;;
3189;SDS011;1606;51.946;10.558;2023-05-10T08:00:29;17.87;;;10.77;;
3189;SDS011;1606;51.946;10.558;2023-05-10T08:02:59;14.40;;;9.87;;
3189;SDS011;1606;51.946;10.558;2023-05-10T08:05:26;15.60;;;9.57;;
3189;SDS011;1606;51.946;10.558;2023-05-10T08:07:54;15.53;;;10.17;;
3189;SDS011;1606;51.946;10.558;2023-05-10T08:10:22;16.47;;;11.17;;
3189;SDS011;1606;51.946;10.558;2023-05-10T08:12:51;14.93;;;10.27;;
3189;SDS011;1606;51.946;10.558;2023-05-10T08:15:19;15.47;;;10.07;;
3189;SDS011;1606;51.946;10.558;2023-05-10T08:17:47;16.83;;;10.30;;
3189;SDS011;1606;51.946;10.558;2023-05-10T08:20:16;14.30;;;9.47;;
3189;SDS011;1606;51.946;10.558;2023-05-10T08:22:45;15.43;;;9.70;;
3189;SDS011;1606;51.946;10.558;2023-05-10T08:25:16;14.23;;;10.00;;
3189;SDS011;1606;51.946;10.558;2023-05-10T08:27:44;14.97;;;9.57;;
3189;SDS011;1606;51.946;10.558;2023-05-10T08:30:12;16.60;;;10.77;;
3189;SDS011;1606;51.946;10.558;2023-05-10T08:32:40;15.77;;;10.73;;
3189;SDS011;1606;51.946;10.558;2023-05-10T08:35:08;16.17;;;10.60;;
3189;SDS011;1606;51.946;10.558;2023-05-10T08:37:37;12.17;;;8.30;;
3189;SDS011;1606;51.946;10.558;2023-05-10T08:40:05;14.23;;;10.30;;
3189;SDS011;1606;51.946;10.558;2023-05-10T08:42:34;15.00;;;9.70;;
3189;SDS011;1606;51.946;10.558;2023-05-10T08:45:07;14.20;;;9.63;;
3189;SDS011;1606;51.946;10.558;2023-05-10T08:47:35;13.43;;;9.40;;
3189;SDS011;1606;51.946;10.558;2023-05-10T08:50:05;15.83;;;10.43;;
3189;SDS011;1606;51.946;10.558;2023-05-10T08:52:34;15.30;;;10.27;;
3189;SDS011;1606;51.946;10.558;2023-05-10T08:55:06;16.40;;;10.50;;
3189;SDS011;1606;51.946;10.558;2023-05-10T08:57:35;14.90;;;10.23;;
3189;SDS011;1606;51.946;10.558;2023-05-10T09:00:03;14.47;;;10.40;;
3189;SDS011;1606;51.946;10.558;2023-05-10T09:02:32;12.50;;;7.43;;
3189;SDS011;1606;51.946;10.558;2023-05-10T09:05:00;9.47;;;4.77;;
3189;SDS011;1606;51.946;10.558;2023-05-10T09:07:29;6.67;;;2.00;;
3189;SDS011;1606;51.946;10.558;2023-05-10T09:10:01;7.50;;;1.83;;
3189;SDS011;1606;51.946;10.558;2023-05-10T09:12:29;7.00;;;1.70;;
3189;SDS011;1606;51.946;10.558;2023-05-10T09:14:57;6.40;;;1.75;;
3189;SDS011;1606;51.946;10.558;2023-05-10T09:17:27;6.27;;;2.00;;
3189;SDS011;1606;51.946;10.558;2023-05-10T09:19:59;5.70;;;1.30;;
3189;SDS011;1606;51.946;10.558;2023-05-10T09:22:28;5.90;;;1.83;;
3189;SDS011;1606;51.946;10.558;2023-05-10T09:25:04;8.67;;;1.20;;
3189;SDS011;1606;51.946;10.558;2023-05-10T09:27:33;5.90;;;1.30;;
3189;SDS011;1606;51.946;10.558;2023-05-10T09:30:01;5.70;;;1.47;;
3189;SDS011;1606;51.946;10.558;2023-05-10T09:32:36;6.20;;;1.20;;
3189;SDS011;1606;51.946;10.558;2023-05-10T09:35:05;6.90;;;1.60;;
3189;SDS011;1606;51.946;10.558;2023-05-10T09:37:38;5.57;;;1.23;;
3189;SDS011;1606;51.946;10.558;2023-05-10T09:40:12;5.83;;;1.33;;
3189;SDS011;1606;51.946;10.558;2023-05-10T09:42:42;5.70;;;1.47;;
3189;SDS011;1606;51.946;10.558;2023-05-10T09:45:17;5.40;;;0.87;;
3189;SDS011;1606;51.946;10.558;2023-05-10T09:47:45;6.30;;;1.10;;
3189;SDS011;1606;51.946;10.558;2023-05-10T09:50:13;5.60;;;1.20;;
3189;SDS011;1606;51.946;10.558;2023-05-10T09:52:47;5.60;;;1.50;;
3189;SDS011;1606;51.946;10.558;2023-05-10T09:55:18;6.40;;;1.63;;
3189;SDS011;1606;51.946;10.558;2023-05-10T09:57:47;6.73;;;1.20;;
3189;SDS011;1606;51.946;10.558;2023-05-10T10:00:16;6.10;;;1.40;;
3189;SDS011;1606;51.946;10.558;2023-05-10T10:02:45;6.43;;;1.70;;
3189;SDS011;1606;51.946;10.558;2023-05-10T10:05:15;6.20;;;1.47;;
3189;SDS011;1606;51.946;10.558;2023-05-10T10:07:43;6.90;;;1.47;;
3189;SDS011;1606;51.946;10.558;2023-05-10T10:10:11;6.97;;;1.47;;
3189;SDS011;1606;51.946;10.558;2023-05-10T10:12:41;5.97;;;1.20;;
3189;SDS011;1606;51.946;10.558;2023-05-10T10:15:10;6.30;;;1.63;;
3189;SDS011;1606;51.946;10.558;2023-05-10T10:17:41;6.93;;;1.50;;
3189;SDS011;1606;51.946;10.558;2023-05-10T10:20:11;6.40;;;1.60;;
3189;SDS011;1606;51.946;10.558;2023-05-10T10:22:39;6.00;;;1.47;;
3189;SDS011;1606;51.946;10.558;2023-05-10T10:25:07;6.10;;;1.27;;
3189;SDS011;1606;51.946;10.558;2023-05-10T10:27:40;5.60;;;1.00;;
3189;SDS011;1606;51.946;10.558;2023-05-10T10:30:18;5.73;;;1.10;;
3189;SDS011;1606;51.946;10.558;2023-05-10T10:32:59;5.60;;;1.20;;
3189;SDS011;1606;51.946;10.558;2023-05-10T10:35:53;5.70;;;1.30;;
3189;SDS011;1606;51.946;10.558;2023-05-10T10:38:22;5.37;;;1.10;;
3189;SDS011;1606;51.946;10.558;2023-05-10T10:40:57;5.40;;;1.20;;
3189;SDS011;1606;51.946;10.558;2023-05-10T10:43:31;5.38;;;1.00;;
3189;SDS011;1606;51.946;10.558;2023-05-10T10:46:09;5.10;;;0.90;;
3189;SDS011;1606;51.946;10.558;2023-05-10T10:48:38;5.27;;;0.97;;
3189;SDS011;1606;51.946;10.558;2023-05-10T10:51:07;6.50;;;1.10;;
3189;SDS011;1606;51.946;10.558;2023-05-10T10:53:38;6.33;;;1.00;;
3189;SDS011;1606;51.946;10.558;2023-05-10T10:56:08;5.03;;;0.90;;
3189;SDS011;1606;51.946;10.558;2023-05-10T10:58:39;5.10;;;0.90;;
3189;SDS011;1606;51.946;10.558;2023-05-10T11:01:10;5.30;;;0.70;;
3189;SDS011;1606;51.946;10.558;2023-05-10T11:03:39;5.30;;;1.03;;
3189;SDS011;1606;51.946;10.558;2023-05-10T11:06:07;5.53;;;1.10;;
3189;SDS011;1606;51.946;10.558;2023-05-10T11:08:41;5.80;;;1.00;;
3189;SDS011;1606;51.946;10.558;2023-05-10T11:11:13;5.30;;;1.13;;
3189;SDS011;1606;51.946;10.558;2023-05-10T11:13:43;7.20;;;0.80;;
3189;SDS011;1606;51.946;10.558;2023-05-10T11:16:17;5.40;;;1.13;;
3189;SDS011;1606;51.946;10.558;2023-05-10T11:18:52;5.10;;;0.83;;
3189;SDS011;1606;51.946;10.558;2023-05-10T11:21:21;5.00;;;0.83;;
3189;SDS011;1606;51.946;10.558;2023-05-10T11:23:50;7.67;;;1.00;;
3189;SDS011;1606;51.946;10.558;2023-05-10T11:26:22;5.13;;;0.93;;
3189;SDS011;1606;51.946;10.558;2023-05-10T11:28:53;5.50;;;1.10;;
3189;SDS011;1606;51.946;10.558;2023-05-10T11:31:22;5.20;;;1.10;;
3189;SDS011;1606;51.946;10.558;2023-05-10T11:33:53;5.53;;;0.97;;
3189;SDS011;1606;51.946;10.558;2023-05-10T11:36:22;5.00;;;0.73;;
3189;SDS011;1606;51.946;10.558;2023-05-10T11:38:52;5.07;;;0.83;;
3189;SDS011;1606;51.946;10.558;2023-05-10T11:41:21;4.93;;;0.70;;
3189;SDS011;1606;51.946;10.558;2023-05-10T11:43:51;5.00;;;0.77;;
3189;SDS011;1606;51.946;10.558;2023-05-10T11:46:21;4.97;;;0.80;;
3189;SDS011;1606;51.946;10.558;2023-05-10T11:48:51;5.00;;;0.80;;
3189;SDS011;1606;51.946;10.558;2023-05-10T11:51:20;5.43;;;1.00;;
3189;SDS011;1606;51.946;10.558;2023-05-10T11:53:49;6.60;;;0.90;;
3189;SDS011;1606;51.946;10.558;2023-05-10T11:56:17;7.77;;;1.00;;
3189;SDS011;1606;51.946;10.558;2023-05-10T11:58:52;5.40;;;0.90;;
3189;SDS011;1606;51.946;10.558;2023-05-10T12:01:22;5.30;;;1.00;;
3189;SDS011;1606;51.946;10.558;2023-05-10T12:03:51;5.20;;;1.10;;
3189;SDS011;1606;51.946;10.558;2023-05-10T12:06:21;6.17;;;1.20;;
3189;SDS011;1606;51.946;10.558;2023-05-10T12:08:49;5.50;;;0.80;;
3189;SDS011;1606;51.946;10.558;2023-05-10T12:11:18;5.57;;;1.30;;
3189;SDS011;1606;51.946;10.558;2023-05-10T12:13:47;6.80;;;1.00;;
3189;SDS011;1606;51.946;10.558;2023-05-10T12:16:17;5.10;;;0.97;;
3189;SDS011;1606;51.946;10.558;2023-05-10T12:18:48;5.93;;;1.00;;
3189;SDS011;1606;51.946;10.558;2023-05-10T12:21:17;5.50;;;0.90;;
3189;SDS011;1606;51.946;10.558;2023-05-10T12:23:48;5.70;;;0.83;;
3189;SDS011;1606;51.946;10.558;2023-05-10T12:26:17;5.88;;;0.95;;
3189;SDS011;1606;51.946;10.558;2023-05-10T12:28:48;5.93;;;0.90;;
3189;SDS011;1606;51.946;10.558;2023-05-10T12:31:17;4.97;;;0.70;;
3189;SDS011;1606;51.946;10.558;2023-05-10T12:33:45;5.00;;;0.97;;
3189;SDS011;1606;51.946;10.558;2023-05-10T12:36:14;5.10;;;1.10;;
3189;SDS011;1606;51.946;10.558;2023-05-10T12:38:43;5.20;;;1.00;;
3189;SDS011;1606;51.946;10.558;2023-05-10T12:41:14;6.10;;;1.03;;
3189;SDS011;1606;51.946;10.558;2023-05-10T12:43:44;5.00;;;0.90;;
3189;SDS011;1606;51.946;10.558;2023-05-10T12:46:12;7.00;;;1.10;;
3189;SDS011;1606;51.946;10.558;2023-05-10T12:48:43;4.90;;;1.00;;
3189;SDS011;1606;51.946;10.558;2023-05-10T12:51:12;4.80;;;1.00;;
3189;SDS011;1606;51.946;10.558;2023-05-10T12:53:43;4.73;;;0.93;;
3189;SDS011;1606;51.946;10.558;2023-05-10T12:56:14;6.77;;;0.93;;
3189;SDS011;1606;51.946;10.558;2023-05-10T12:58:42;4.50;;;0.73;;
3189;SDS011;1606;51.946;10.558;2023-05-10T13:01:14;5.60;;;1.00;;
3189;SDS011;1606;51.946;10.558;2023-05-10T13:03:43;4.57;;;0.83;;
3189;SDS011;1606;51.946;10.558;2023-05-10T13:06:11;5.20;;;0.80;;
3189;SDS011;1606;51.946;10.558;2023-05-10T13:08:40;4.70;;;0.90;;
3189;SDS011;1606;51.946;10.558;2023-05-10T13:11:08;5.00;;;0.90;;
3189;SDS011;1606;51.946;10.558;2023-05-10T13:13:36;4.60;;;0.80;;
3189;SDS011;1606;51.946;10.558;2023-05-10T13:16:04;5.10;;;1.10;;
3189;SDS011;1606;51.946;10.558;2023-05-10T13:18:35;10.90;;;1.27;;
3189;SDS011;1606;51.946;10.558;2023-05-10T13:21:04;4.80;;;0.90;;
3189;SDS011;1606;51.946;10.558;2023-05-10T13:23:32;6.43;;;1.00;;
3189;SDS011;1606;51.946;10.558;2023-05-10T13:25:59;5.63;;;1.40;;
3189;SDS011;1606;51.946;10.558;2023-05-10T13:28:27;4.80;;;0.70;;
3189;SDS011;1606;51.946;10.558;2023-05-10T13:30:56;5.10;;;1.20;;
3189;SDS011;1606;51.946;10.558;2023-05-10T13:33:26;4.70;;;0.73;;
3189;SDS011;1606;51.946;10.558;2023-05-10T13:35:53;5.00;;;0.87;;
3189;SDS011;1606;51.946;10.558;2023-05-10T13:38:22;5.20;;;0.90;;
3189;SDS011;1606;51.946;10.558;2023-05-10T13:40:50;5.27;;;1.20;;
3189;SDS011;1606;51.946;10.558;2023-05-10T13:43:19;5.00;;;1.00;;
3189;SDS011;1606;51.946;10.558;2023-05-10T13:45:47;4.90;;;0.87;;
3189;SDS011;1606;51.946;10.558;2023-05-10T13:48:14;5.30;;;1.00;;
3189;SDS011;1606;51.946;10.558;2023-05-10T13:50:42;4.80;;;0.93;;
3189;SDS011;1606;51.946;10.558;2023-05-10T13:53:11;5.93;;;0.97;;
3189;SDS011;1606;51.946;10.558;2023-05-10T13:55:40;5.00;;;0.90;;
3189;SDS011;1606;51.946;10.558;2023-05-10T13:58:08;5.17;;;1.00;;
3189;SDS011;1606;51.946;10.558;2023-05-10T14:00:35;5.23;;;1.20;;
3189;SDS011;1606;51.946;10.558;2023-05-10T14:03:03;5.67;;;1.00;;
3189;SDS011;1606;51.946;10.558;2023-05-10T14:05:32;5.90;;;1.60;;
3189;SDS011;1606;51.946;10.558;2023-05-10T14:08:01;6.03;;;0.97;;
3189;SDS011;1606;51.946;10.558;2023-05-10T14:10:30;4.60;;;0.73;;
3189;SDS011;1606;51.946;10.558;2023-05-10T14:12:59;6.00;;;1.10;;
3189;SDS011;1606;51.946;10.558;2023-05-10T14:15:27;5.47;;;1.30;;
3189;SDS011;1606;51.946;10.558;2023-05-10T14:17:55;4.90;;;0.97;;
3189;SDS011;1606;51.946;10.558;2023-05-10T14:20:22;4.90;;;0.97;;
3189;SDS011;1606;51.946;10.558;2023-05-10T14:22:50;6.30;;;1.20;;
3189;SDS011;1606;51.946;10.558;2023-05-10T14:25:18;5.40;;;0.90;;
3189;SDS011;1606;51.946;10.558;2023-05-10T14:27:46;5.63;;;0.90;;
3189;SDS011;1606;51.946;10.558;2023-05-10T14:30:15;5.37;;;1.30;;
3189;SDS011;1606;51.946;10.558;2023-05-10T14:32:43;5.13;;;1.00;;
3189;SDS011;1606;51.946;10.558;2023-05-10T14:35:11;6.50;;;1.27;;
3189;SDS011;1606;51.946;10.558;2023-05-10T14:37:43;5.27;;;1.13;;
3189;SDS011;1606;51.946;10.558;2023-05-10T14:40:11;5.83;;;1.20;;
3189;SDS011;1606;51.946;10.558;2023-05-10T14:42:41;5.70;;;1.30;;
3189;SDS011;1606;51.946;10.558;2023-05-10T14:45:09;6.50;;;1.37;;
3189;SDS011;1606;51.946;10.558;2023-05-10T14:47:39;5.00;;;1.10;;
3189;SDS011;1606;51.946;10.558;2023-05-10T14:50:07;5.83;;;1.63;;
3189;SDS011;1606;51.946;10.558;2023-05-10T14:52:35;4.90;;;0.83;;
3189;SDS011;1606;51.946;10.558;2023-05-10T14:55:03;5.13;;;1.30;;
3189;SDS011;1606;51.946;10.558;2023-05-10T14:57:32;6.70;;;1.20;;
3189;SDS011;1606;51.946;10.558;2023-05-10T15:00:00;5.23;;;1.10;;
3189;SDS011;1606;51.946;10.558;2023-05-10T15:02:28;5.20;;;1.07;;
3189;SDS011;1606;51.946;10.558;2023-05-10T15:04:58;5.13;;;1.20;;
3189;SDS011;1606;51.946;10.558;2023-05-10T15:07:26;4.80;;;0.90;;
3189;SDS011;1606;51.946;10.558;2023-05-10T15:09:54;5.67;;;1.10;;